Time;durP1;ratioP1;P1;durP2;ratioP2;P2;SDS_P1;SDS_P2;PMS_P1;PMS_P2;Temp;Humidity;BMP_temperature;BMP_pressure;BME280_temperature;BME280_humidity;BME280_pressure;Samples;Min_cycle;Max_cycle;Signal;HPM_P1;HPM_P2
2022/07/08 00:00:41;;;;;;;;;;;;;;;18.38;100.00;100559.75;3055894;19;1159;-51
2022/07/08 00:01:46;;;;;;;;;;;;;;;18.40;100.00;100563.16;3056243;19;1841;-51
2022/07/08 00:02:48;;;;;;;;;;;;;;;18.42;100.00;100555.78;3056234;19;953;-51
2022/07/08 00:03:52;;;;;;;;;;;;;;;18.43;100.00;100546.66;3056408;19;949;-50
2022/07/08 00:04:54;;;;;;;;;;;;;;;18.44;100.00;100559.19;3055993;19;1420;-50
2022/07/08 00:05:59;;;;;;;;;;;;;;;18.45;100.00;100553.66;3056678;19;928;-51
2022/07/08 00:07:02;;;;;;;;;;;;;;;18.48;100.00;100552.47;3056405;19;976;-51
2022/07/08 00:08:06;;;;;;;;;;;;;;;18.47;100.00;100553.50;3056418;19;854;-51
2022/07/08 00:09:10;;;;;;;;;;;;;;;18.49;100.00;100563.16;3055172;19;989;-51
2022/07/08 00:10:14;;;;;;;;;;;;;;;18.50;100.00;100561.31;3055263;19;904;-51
2022/07/08 00:11:16;;;;;;;;;;;;;;;18.51;100.00;100561.16;3055092;19;942;-51
2022/07/08 00:12:20;;;;;;;;;;;;;;;18.43;100.00;100552.94;3056495;19;889;-51
2022/07/08 00:13:22;;;;;;;;;;;;;;;18.51;100.00;100563.00;3056136;19;928;-50
2022/07/08 00:14:27;;;;;;;;;;;;;;;18.52;100.00;100570.97;3056496;19;876;-51
2022/07/08 00:15:29;;;;;;;;;;;;;;;18.52;100.00;100562.00;3056402;19;865;-50
2022/07/08 00:16:34;;;;;;;;;;;;;;;18.54;100.00;100571.69;3056332;19;972;-51
2022/07/08 00:17:36;;;;;;;;;;;;;;;18.54;100.00;100560.88;3056002;19;957;-50
2022/07/08 00:18:41;;;;;;;;;;;;;;;18.55;100.00;100567.16;3056273;19;945;-51
2022/07/08 00:19:42;;;;;;;;;;;;;;;18.56;100.00;100558.03;3055998;19;1321;-51
2022/07/08 00:20:47;;;;;;;;;;;;;;;18.56;100.00;100563.44;3056255;19;953;-51
2022/07/08 00:21:49;;;;;;;;;;;;;;;18.57;100.00;100549.78;3055947;19;909;-51
2022/07/08 00:22:54;;;;;;;;;;;;;;;18.58;100.00;100556.09;3055772;19;1850;-51
2022/07/08 00:23:56;;;;;;;;;;;;;;;18.59;100.00;100552.38;3056009;19;898;-51
2022/07/08 00:25:00;;;;;;;;;;;;;;;18.59;100.00;100552.38;3056356;19;1200;-51
2022/07/08 00:26:02;;;;;;;;;;;;;;;18.58;100.00;100550.69;3055157;19;1143;-51
2022/07/08 00:27:07;;;;;;;;;;;;;;;18.57;100.00;100543.53;3056384;19;897;-51
2022/07/08 00:28:08;;;;;;;;;;;;;;;18.57;100.00;100549.78;3055799;19;1346;-51
2022/07/08 00:29:13;;;;;;;;;;;;;;;18.58;100.00;100545.28;3055998;19;913;-51
2022/07/08 00:30:15;;;;;;;;;;;;;;;18.57;100.00;100547.09;3055354;19;881;-51
2022/07/08 00:31:19;;;;;;;;;;;;;;;18.57;100.00;100543.53;3055217;19;1051;-51
2022/07/08 00:32:21;;;;;;;;;;;;;;;18.58;100.00;100542.56;3055263;19;910;-51
2022/07/08 00:33:26;;;;;;;;;;;;;;;18.56;100.00;100553.50;3055136;19;897;-51
2022/07/08 00:34:29;;;;;;;;;;;;;;;18.56;100.00;100553.50;3055434;19;913;-51
2022/07/08 00:35:34;;;;;;;;;;;;;;;18.57;100.00;100554.34;3055952;19;1040;-51
2022/07/08 00:36:36;;;;;;;;;;;;;;;18.55;100.00;100548.22;3055909;19;1051;-51
2022/07/08 00:37:40;;;;;;;;;;;;;;;18.54;100.00;100554.63;3056052;19;927;-50
2022/07/08 00:38:42;;;;;;;;;;;;;;;18.53;100.00;100552.91;3055325;19;1163;-50
2022/07/08 00:39:46;;;;;;;;;;;;;;;18.54;100.00;100546.50;3055319;19;885;-51
2022/07/08 00:40:48;;;;;;;;;;;;;;;18.53;100.00;100544.81;3055883;19;968;-51
2022/07/08 00:41:53;;;;;;;;;;;;;;;18.52;100.00;100545.81;3055975;19;1012;-51
2022/07/08 00:42:55;;;;;;;;;;;;;;;18.52;100.00;100557.47;3055195;19;1852;-51
2022/07/08 00:43:59;;;;;;;;;;;;;;;18.52;100.00;100545.81;3055739;19;979;-51
2022/07/08 00:45:01;;;;;;;;;;;;;;;18.49;100.00;100552.34;3055641;19;996;-51
2022/07/08 00:46:06;;;;;;;;;;;;;;;18.50;100.00;100545.09;3055835;19;894;-51
2022/07/08 00:47:10;;;;;;;;;;;;;;;18.49;100.00;100551.47;3055834;19;882;-50
2022/07/08 00:48:12;;;;;;;;;;;;;;;18.47;100.00;100537.28;3056165;19;861;-51
2022/07/08 00:49:17;;;;;;;;;;;;;;;18.46;100.00;100543.69;3055534;19;984;-50
2022/07/08 00:50:19;;;;;;;;;;;;;;;18.43;100.00;100542.13;3055752;19;1673;-50
2022/07/08 00:51:23;;;;;;;;;;;;;;;18.42;100.00;100535.00;3055837;19;980;-51
2022/07/08 00:52:25;;;;;;;;;;;;;;;18.40;100.00;100538.84;3056060;19;940;-51
2022/07/08 00:53:30;;;;;;;;;;;;;;;18.36;100.00;100541.81;3055998;19;879;-51
2022/07/08 00:54:32;;;;;;;;;;;;;;;18.37;100.00;100553.47;3055898;19;977;-50
2022/07/08 00:55:37;;;;;;;;;;;;;;;18.34;100.00;100549.25;3055699;19;1790;-51
2022/07/08 00:56:39;;;;;;;;;;;;;;;18.33;100.00;100547.53;3055755;19;1028;-51
2022/07/08 00:57:43;;;;;;;;;;;;;;;18.33;100.00;100552.94;3055166;19;1051;-51
2022/07/08 00:58:45;;;;;;;;;;;;;;;18.31;100.00;100560.31;3056667;19;900;-51
2022/07/08 00:59:49;;;;;;;;;;;;;;;18.30;100.00;100553.22;3057699;19;1159;-51
2022/07/08 01:00:54;;;;;;;;;;;;;;;18.30;100.00;100566.72;3057992;19;966;-51
2022/07/08 01:01:59;;;;;;;;;;;;;;;18.30;100.00;100568.56;3058591;19;1067;-50
2022/07/08 01:03:01;;;;;;;;;;;;;;;18.30;100.00;100568.56;3058148;19;1857;-50
2022/07/08 01:04:06;;;;;;;;;;;;;;;18.31;100.00;100581.09;3058674;19;838;-51
2022/07/08 01:05:08;;;;;;;;;;;;;;;18.31;100.00;100576.53;3058736;19;1102;-51
2022/07/08 01:06:13;;;;;;;;;;;;;;;18.31;100.00;100576.53;3059066;19;942;-50
2022/07/08 01:07:15;;;;;;;;;;;;;;;18.31;100.00;100571.13;3058580;19;957;-51
2022/07/08 01:08:19;;;;;;;;;;;;;;;18.25;100.00;100557.31;3059114;19;842;-51
2022/07/08 01:09:21;;;;;;;;;;;;;;;18.33;100.00;100563.75;3058497;19;1060;-51
2022/07/08 01:10:26;;;;;;;;;;;;;;;18.34;100.00;100570.88;3059368;19;822;-50
2022/07/08 01:11:28;;;;;;;;;;;;;;;18.35;100.00;100572.53;3058501;19;2356;-51
2022/07/08 01:12:32;;;;;;;;;;;;;;;18.34;100.00;100565.47;3058707;19;847;-51
2022/07/08 01:13:34;;;;;;;;;;;;;;;18.33;100.00;100550.25;3058481;19;1490;-51
2022/07/08 01:14:39;;;;;;;;;;;;;;;18.31;100.00;100549.53;3058902;19;949;-50
2022/07/08 01:15:41;;;;;;;;;;;;;;;18.31;100.00;100559.47;3058419;19;870;-51
2022/07/08 01:16:45;;;;;;;;;;;;;;;18.29;100.00;100551.50;3058618;19;1346;-50
2022/07/08 01:17:48;;;;;;;;;;;;;;;18.26;100.00;100540.97;3058596;19;984;-50
2022/07/08 01:18:52;;;;;;;;;;;;;;;18.24;100.00;100537.56;3058489;19;798;-51
2022/07/08 01:19:54;;;;;;;;;;;;;;;18.24;100.00;100532.16;3058670;19;1080;-51
2022/07/08 01:20:59;;;;;;;;;;;;;;;18.23;100.00;100522.34;3058757;19;969;-51
2022/07/08 01:22:01;;;;;;;;;;;;;;;18.23;100.00;100524.22;3058520;19;1006;-51
2022/07/08 01:23:06;;;;;;;;;;;;;;;18.11;100.00;100503.75;3058355;19;1861;-50
2022/07/08 01:24:08;;;;;;;;;;;;;;;18.23;100.00;100525.03;3058446;19;1046;-51
2022/07/08 01:25:12;;;;;;;;;;;;;;;18.21;100.00;100524.38;3058497;19;1166;-51
2022/07/08 01:26:14;;;;;;;;;;;;;;;18.22;100.00;100512.56;3058468;19;993;-51
2022/07/08 01:27:19;;;;;;;;;;;;;;;18.25;100.00;100522.22;3058122;19;1063;-50
2022/07/08 01:28:21;;;;;;;;;;;;;;;18.24;100.00;100510.53;3058410;19;993;-51
2022/07/08 01:29:25;;;;;;;;;;;;;;;18.25;100.00;100522.22;3057902;19;976;-50
2022/07/08 01:30:27;;;;;;;;;;;;;;;18.25;100.00;100530.31;3057672;19;1002;-51
2022/07/08 01:31:31;;;;;;;;;;;;;;;18.25;100.00;100517.66;3058613;19;953;-51
2022/07/08 01:32:34;;;;;;;;;;;;;;;18.23;100.00;100519.63;3058486;19;897;-52
2022/07/08 01:33:39;;;;;;;;;;;;;;;18.24;100.00;100518.66;3058888;19;833;-51
2022/07/08 01:34:41;;;;;;;;;;;;;;;18.24;100.00;100520.50;3058262;19;1024;-50
2022/07/08 01:35:45;;;;;;;;;;;;;;;18.23;100.00;100514.25;3058557;19;1075;-51
2022/07/08 01:36:50;;;;;;;;;;;;;;;18.25;100.00;100516.81;3058454;19;902;-51
2022/07/08 01:37:52;;;;;;;;;;;;;;;18.26;100.00;100519.38;3058556;19;1056;-51
2022/07/08 01:38:56;;;;;;;;;;;;;;;18.26;100.00;100519.38;3057945;19;861;-51
2022/07/08 01:39:58;;;;;;;;;;;;;;;18.27;100.00;100523.78;3058547;19;952;-51
2022/07/08 01:41:03;;;;;;;;;;;;;;;18.29;100.00;100527.19;3058298;19;896;-51
2022/07/08 01:42:05;;;;;;;;;;;;;;;18.30;100.00;100537.00;3058475;19;1133;-50
2022/07/08 01:43:09;;;;;;;;;;;;;;;18.33;100.00;100534.03;3058075;19;969;-51
2022/07/08 01:44:14;;;;;;;;;;;;;;;18.34;100.00;100532.19;3058707;19;822;-51
2022/07/08 01:45:16;;;;;;;;;;;;;;;18.35;100.00;100532.00;3058291;19;913;-51
2022/07/08 01:46:20;;;;;;;;;;;;;;;18.35;100.00;100523.91;3058621;19;1362;-51
2022/07/08 01:47:22;;;;;;;;;;;;;;;18.37;100.00;100526.47;3058138;19;853;-51
2022/07/08 01:48:26;;;;;;;;;;;;;;;18.37;100.00;100521.06;3058385;19;940;-50
2022/07/08 01:49:29;;;;;;;;;;;;;;;18.38;100.00;100530.03;3058347;19;889;-51
2022/07/08 01:50:33;;;;;;;;;;;;;;;18.39;100.00;100529.03;3058349;19;858;-50
2022/07/08 01:51:35;;;;;;;;;;;;;;;18.38;100.00;100533.56;3057279;19;981;-51
2022/07/08 01:52:40;;;;;;;;;;;;;;;18.40;100.00;100536.13;3057420;19;965;-51
2022/07/08 01:53:44;;;;;;;;;;;;;;;18.39;100.00;100539.84;3058112;19;878;-51
2022/07/08 01:54:46;;;;;;;;;;;;;;;18.39;100.00;100540.69;3058134;19;981;-51
2022/07/08 01:55:50;;;;;;;;;;;;;;;18.41;100.00;100548.66;3057407;19;1067;-51
2022/07/08 01:57:13;;;;;;;;;;;;;;;18.40;100.00;100541.53;3058184;19;853;-51
2022/07/08 01:58:17;;;;;;;;;;;;;;;18.42;100.00;100544.97;3057913;19;1666;-51
2022/07/08 01:59:19;;;;;;;;;;;;;;;18.42;100.00;100547.66;3057928;19;930;-51
2022/07/08 02:00:23;;;;;;;;;;;;;;;18.43;100.00;100547.53;3058086;19;979;-50
2022/07/08 02:01:25;;;;;;;;;;;;;;;18.43;100.00;100546.66;3057895;19;944;-51
2022/07/08 02:02:29;;;;;;;;;;;;;;;18.45;100.00;100566.31;3057864;19;981;-51
2022/07/08 02:03:31;;;;;;;;;;;;;;;18.45;100.00;100566.31;3057776;19;1854;-50
2022/07/08 02:04:36;;;;;;;;;;;;;;;18.44;100.00;100568.16;3058464;19;877;-51
2022/07/08 02:05:37;;;;;;;;;;;;;;;18.46;100.00;100565.31;3057927;19;948;-51
2022/07/08 02:06:42;;;;;;;;;;;;;;;18.45;100.00;100567.16;3057127;19;945;-50
2022/07/08 02:07:44;;;;;;;;;;;;;;;18.45;100.00;100571.72;3056959;19;977;-50
2022/07/08 02:08:50;;;;;;;;;;;;;;;18.44;100.00;100564.59;3058096;19;952;-51
2022/07/08 02:09:52;;;;;;;;;;;;;;;18.44;100.00;100564.59;3057384;19;889;-51
2022/07/08 02:12:22;;;;;;;;;;;;;;;18.44;100.00;100564.59;3056005;19;1515;-51
2022/07/08 02:13:24;;;;;;;;;;;;;;;18.42;100.00;100562.03;3057539;19;1263;-51
2022/07/08 02:14:26;;;;;;;;;;;;;;;18.44;100.00;100564.59;3057213;19;1040;-52
2022/07/08 02:15:30;;;;;;;;;;;;;;;18.44;100.00;100570.00;3057728;19;969;-51
2022/07/08 02:16:32;;;;;;;;;;;;;;;18.44;100.00;100559.19;3057665;19;862;-50
2022/07/08 02:17:41;;;;;;;;;;;;;;;18.44;100.00;100561.88;3058134;19;901;-51
2022/07/08 02:18:43;;;;;;;;;;;;;;;18.44;100.00;100570.00;3056824;19;973;-50
2022/07/08 02:19:48;;;;;;;;;;;;;;;18.44;100.00;100570.00;3056888;19;976;-51
2022/07/08 02:20:51;;;;;;;;;;;;;;;18.45;100.00;100563.59;3057765;19;928;-51
2022/07/08 02:21:55;;;;;;;;;;;;;;;18.46;100.00;100557.19;3057882;19;913;-51
2022/07/08 02:22:59;;;;;;;;;;;;;;;18.46;100.00;100568.88;3057706;19;973;-51
2022/07/08 02:24:01;;;;;;;;;;;;;;;18.46;100.00;100563.47;3057599;19;1850;-51
2022/07/08 02:25:06;;;;;;;;;;;;;;;18.47;100.00;100564.31;3057210;19;1071;-51
2022/07/08 02:26:09;;;;;;;;;;;;;;;18.46;100.00;100558.06;3058137;19;1315;-51
2022/07/08 02:27:13;;;;;;;;;;;;;;;18.47;100.00;100553.50;3057409;19;1044;-52
2022/07/08 02:28:18;;;;;;;;;;;;;;;18.47;100.00;100557.06;3057887;19;944;-51
2022/07/08 02:29:20;;;;;;;;;;;;;;;18.48;100.00;100568.69;3057697;19;941;-50
2022/07/08 02:30:24;;;;;;;;;;;;;;;18.49;100.00;100567.69;3057395;19;1452;-51
2022/07/08 02:31:26;;;;;;;;;;;;;;;18.49;100.00;100565.00;3057195;19;1051;-51
2022/07/08 02:32:31;;;;;;;;;;;;;;;18.49;100.00;100560.44;3057732;19;894;-51
2022/07/08 02:33:33;;;;;;;;;;;;;;;18.49;100.00;100556.88;3057705;19;909;-51
2022/07/08 02:34:38;;;;;;;;;;;;;;;18.51;100.00;100565.72;3057641;19;924;-50
2022/07/08 02:35:40;;;;;;;;;;;;;;;18.50;100.00;100564.84;3057674;19;874;-51
2022/07/08 02:36:44;;;;;;;;;;;;;;;18.50;100.00;100561.31;3057617;19;980;-51
2022/07/08 02:37:48;;;;;;;;;;;;;;;18.49;100.00;100573.09;3057475;19;1008;-51
2022/07/08 02:38:50;;;;;;;;;;;;;;;18.49;100.00;100573.09;3057538;19;890;-51
2022/07/08 02:39:55;;;;;;;;;;;;;;;18.49;100.00;100573.09;3057224;19;1190;-50
2022/07/08 02:40:56;;;;;;;;;;;;;;;18.48;100.00;100576.81;3057271;19;964;-50
2022/07/08 02:42:01;;;;;;;;;;;;;;;18.48;100.00;100582.22;3057575;19;1222;-51
2022/07/08 02:43:03;;;;;;;;;;;;;;;18.47;100.00;100580.53;3057592;19;911;-51
2022/07/08 02:44:07;;;;;;;;;;;;;;;18.45;100.00;100577.09;3056558;19;1866;-51
2022/07/08 02:45:09;;;;;;;;;;;;;;;18.43;100.00;100585.34;3057399;19;974;-51
2022/07/08 02:46:14;;;;;;;;;;;;;;;18.42;100.00;100585.50;3057401;19;960;-51
2022/07/08 02:47:16;;;;;;;;;;;;;;;18.38;100.00;100594.88;3057277;19;980;-50
2022/07/08 02:48:20;;;;;;;;;;;;;;;18.35;100.00;100583.34;3057465;19;929;-51
2022/07/08 02:49:22;;;;;;;;;;;;;;;18.33;100.00;100593.47;3057125;19;965;-50
2022/07/08 02:50:27;;;;;;;;;;;;;;;18.32;100.00;100597.16;3057590;19;992;-51
2022/07/08 02:51:28;;;;;;;;;;;;;;;18.31;100.00;100602.69;3057346;19;897;-51
2022/07/08 02:52:33;;;;;;;;;;;;;;;18.30;100.00;100607.25;3057591;19;2011;-50
2022/07/08 02:53:35;;;;;;;;;;;;;;;18.27;100.00;100610.22;3057098;19;854;-50
2022/07/08 02:54:39;;;;;;;;;;;;;;;18.27;100.00;100615.63;3057468;19;1013;-50
2022/07/08 02:55:41;;;;;;;;;;;;;;;18.26;100.00;100616.63;3057000;19;875;-51
2022/07/08 02:56:45;;;;;;;;;;;;;;;18.25;100.00;100617.63;3057705;19;980;-51
2022/07/08 02:57:47;;;;;;;;;;;;;;;18.25;100.00;100623.00;3057324;19;915;-50
2022/07/08 02:58:52;;;;;;;;;;;;;;;18.24;100.00;100629.41;3057420;19;936;-50
2022/07/08 02:59:54;;;;;;;;;;;;;;;18.24;100.00;100629.41;3057332;19;842;-51
2022/07/08 03:00:58;;;;;;;;;;;;;;;18.24;100.00;100634.81;3057265;19;1028;-50
2022/07/08 03:02:00;;;;;;;;;;;;;;;18.24;100.00;100632.13;3056994;19;958;-51
2022/07/08 03:03:04;;;;;;;;;;;;;;;18.24;100.00;100633.97;3057513;19;823;-51
2022/07/08 03:04:06;;;;;;;;;;;;;;;18.25;100.00;100635.66;3056918;19;1048;-51
2022/07/08 03:05:11;;;;;;;;;;;;;;;18.24;100.00;100642.91;3056989;19;1857;-50
2022/07/08 03:06:13;;;;;;;;;;;;;;;18.24;100.00;100645.63;3057120;19;952;-50
2022/07/08 03:07:17;;;;;;;;;;;;;;;18.25;100.00;100636.53;3057193;19;1071;-50
2022/07/08 03:08:19;;;;;;;;;;;;;;;18.26;100.00;100640.09;3056389;19;969;-50
2022/07/08 03:09:24;;;;;;;;;;;;;;;18.26;100.00;100651.75;3057234;19;904;-51
2022/07/08 03:10:25;;;;;;;;;;;;;;;18.26;100.00;100643.63;3057036;19;898;-50
2022/07/08 03:11:30;;;;;;;;;;;;;;;18.28;100.00;100651.59;3057423;19;881;-50
2022/07/08 03:12:32;;;;;;;;;;;;;;;18.28;100.00;100657.88;3056718;19;873;-51
2022/07/08 03:13:37;;;;;;;;;;;;;;;18.30;100.00;100660.44;3057412;19;870;-50
2022/07/08 03:14:39;;;;;;;;;;;;;;;18.25;100.00;100649.19;3056699;19;1032;-51
2022/07/08 03:15:43;;;;;;;;;;;;;;;18.30;100.00;100655.88;3057167;19;1116;-51
2022/07/08 03:16:45;;;;;;;;;;;;;;;18.33;100.00;100660.16;3056959;19;854;-50
2022/07/08 03:17:50;;;;;;;;;;;;;;;18.35;100.00;100659.00;3056999;19;956;-51
2022/07/08 03:18:51;;;;;;;;;;;;;;;18.36;100.00;100660.72;3056964;19;1683;-51
2022/07/08 03:19:56;;;;;;;;;;;;;;;18.39;100.00;100658.72;3057119;19;874;-51
2022/07/08 03:20:58;;;;;;;;;;;;;;;18.42;100.00;100663.88;3056719;19;1060;-51
2022/07/08 03:22:02;;;;;;;;;;;;;;;18.44;100.00;100661.88;3056008;19;985;-51
2022/07/08 03:23:04;;;;;;;;;;;;;;;18.44;100.00;100668.13;3056442;19;870;-50
2022/07/08 03:24:09;;;;;;;;;;;;;;;18.47;100.00;100669.72;3056499;19;1040;-50
2022/07/08 03:25:11;;;;;;;;;;;;;;;18.49;100.00;100670.41;3056032;19;1834;-51
2022/07/08 03:26:15;;;;;;;;;;;;;;;18.51;100.00;100680.09;3057121;19;894;-51
2022/07/08 03:27:17;;;;;;;;;;;;;;;18.55;100.00;100680.66;3055631;19;1020;-51
2022/07/08 03:28:21;;;;;;;;;;;;;;;18.57;100.00;100681.38;3056150;19;980;-51
2022/07/08 03:29:23;;;;;;;;;;;;;;;18.61;100.00;100680.13;3056566;19;889;-50
2022/07/08 03:30:28;;;;;;;;;;;;;;;18.65;100.00;100692.38;3057025;19;903;-51
2022/07/08 03:31:30;;;;;;;;;;;;;;;18.69;100.00;100681.13;3056788;19;871;-50
2022/07/08 03:32:34;;;;;;;;;;;;;;;18.72;100.00;100679.16;3057239;19;941;-50
2022/07/08 03:33:36;;;;;;;;;;;;;;;18.74;100.00;100686.09;3056518;19;960;-51
2022/07/08 03:34:40;;;;;;;;;;;;;;;18.77;100.00;100675.00;3056947;19;996;-51
2022/07/08 03:35:42;;;;;;;;;;;;;;;18.81;100.00;100681.84;3056745;19;937;-51
2022/07/08 03:36:47;;;;;;;;;;;;;;;18.84;100.00;100678.84;3056591;19;1690;-50
2022/07/08 03:37:49;;;;;;;;;;;;;;;18.88;100.00;100680.28;3055974;19;984;-51
2022/07/08 03:38:53;;;;;;;;;;;;;;;18.89;100.00;100684.69;3057032;19;1080;-50
2022/07/08 03:39:55;;;;;;;;;;;;;;;18.92;100.00;100689.81;3056652;19;976;-51
2022/07/08 03:42:16;;;;;;;;;;;;;;;18.95;100.00;100689.53;3056366;19;1069;-51
2022/07/08 03:43:18;;;;;;;;;;;;;;;18.94;100.00;100686.97;3056603;19;962;-51
2022/07/08 03:44:22;;;;;;;;;;;;;;;18.99;100.00;100700.91;3056545;19;945;-51
2022/07/08 03:45:24;;;;;;;;;;;;;;;18.99;100.00;100695.50;3056263;19;1865;-51
2022/07/08 03:46:30;;;;;;;;;;;;;;;19.01;100.00;100704.31;3056602;19;1000;-51
2022/07/08 03:47:33;;;;;;;;;;;;;;;19.05;100.00;100712.03;3056710;19;1663;-52
2022/07/08 03:48:38;;;;;;;;;;;;;;;19.08;100.00;100718.16;3056538;19;1715;-51
2022/07/08 03:49:40;;;;;;;;;;;;;;;19.10;100.00;100710.72;3056498;19;954;-51
2022/07/08 03:50:44;;;;;;;;;;;;;;;19.14;100.00;100704.88;3057504;19;1520;-50
2022/07/08 03:51:49;;;;;;;;;;;;;;;19.17;100.00;100714.56;3056116;19;1626;-51
2022/07/08 03:52:51;;;;;;;;;;;;;;;19.19;100.00;100715.28;3056644;19;1178;-51
2022/07/08 03:53:56;;;;;;;;;;;;;;;19.23;100.00;100712.13;3056473;19;1019;-51
2022/07/08 03:54:58;;;;;;;;;;;;;;;19.25;100.00;100712.84;3056666;19;1338;-51
2022/07/08 03:56:02;;;;;;;;;;;;;;;19.29;100.00;100702.59;3056268;19;819;-50
2022/07/08 03:57:07;;;;;;;;;;;;;;;19.30;100.00;100704.31;3056555;19;924;-50
2022/07/08 03:58:08;;;;;;;;;;;;;;;19.32;100.00;100702.31;3055689;19;924;-51
2022/07/08 03:59:13;;;;;;;;;;;;;;;19.33;100.00;100704.00;3055577;19;1059;-51
2022/07/08 04:00:15;;;;;;;;;;;;;;;19.35;100.00;100696.59;3056072;19;1726;-50
2022/07/08 04:01:19;;;;;;;;;;;;;;;19.36;100.00;100698.28;3056837;19;912;-51
2022/07/08 04:02:22;;;;;;;;;;;;;;;19.39;100.00;100703.41;3056121;19;969;-50
2022/07/08 04:03:26;;;;;;;;;;;;;;;19.41;100.00;100704.13;3056623;19;921;-51
2022/07/08 04:04:28;;;;;;;;;;;;;;;19.42;100.00;100709.41;3056092;19;950;-51
2022/07/08 04:05:33;;;;;;;;;;;;;;;19.37;100.00;100695.44;3056511;19;1868;-50
2022/07/08 04:06:37;;;;;;;;;;;;;;;19.47;100.00;100711.66;3055820;19;973;-51
2022/07/08 04:07:39;;;;;;;;;;;;;;;19.48;100.00;100705.25;3056527;19;845;-51
2022/07/08 04:08:50;;;;;;;;;;;;;;;19.53;100.00;100713.81;3056234;19;869;-50
2022/07/08 04:09:52;;;;;;;;;;;;;;;19.56;100.00;100707.28;3056262;19;998;-51
2022/07/08 04:10:56;;;;;;;;;;;;;;;19.60;100.00;100722.19;3056058;19;995;-51
2022/07/08 04:11:58;;;;;;;;;;;;;;;19.65;100.00;100709.09;3056077;19;1481;-51
2022/07/08 04:13:03;;;;;;;;;;;;;;;19.69;100.00;100716.75;3057147;19;1195;-51
2022/07/08 04:14:05;;;;;;;;;;;;;;;19.74;100.00;100714.47;3056495;19;1698;-51
2022/07/08 04:15:09;;;;;;;;;;;;;;;19.81;100.00;100713.84;3056316;19;897;-52
2022/07/08 04:16:12;;;;;;;;;;;;;;;19.91;100.00;100725.53;3057062;19;1954;-51
2022/07/08 04:17:17;;;;;;;;;;;;;;;19.99;100.00;100712.09;3055342;19;981;-51
2022/07/08 04:18:19;;;;;;;;;;;;;;;20.09;100.00;100723.72;3055972;19;952;-50
2022/07/08 04:19:23;;;;;;;;;;;;;;;20.20;100.00;100715.41;3055778;19;1799;-51
2022/07/08 04:20:25;;;;;;;;;;;;;;;20.32;100.00;100725.03;3056405;19;972;-51
2022/07/08 04:21:29;;;;;;;;;;;;;;;20.44;100.00;100723.84;3055609;19;981;-50
2022/07/08 04:22:31;;;;;;;;;;;;;;;20.58;100.00;100724.34;3056515;19;878;-50
2022/07/08 04:23:37;;;;;;;;;;;;;;;20.71;100.00;100731.09;3056235;19;900;-50
2022/07/08 04:24:39;;;;;;;;;;;;;;;20.83;100.00;100731.72;3056207;19;1003;-52
2022/07/08 04:25:44;;;;;;;;;;;;;;;20.96;100.00;100740.34;3055074;19;1868;-51
2022/07/08 04:26:45;;;;;;;;;;;;;;;21.12;100.00;100751.34;3056284;19;870;-51
2022/07/08 04:27:50;;;;;;;;;;;;;;;21.28;100.00;100755.22;3055745;19;1716;-50
2022/07/08 04:28:52;;;;;;;;;;;;;;;21.43;100.00;100764.53;3056112;19;957;-51
2022/07/08 04:29:56;;;;;;;;;;;;;;;21.60;100.00;100766.38;3055978;19;1322;-51
2022/07/08 04:31:01;;;;;;;;;;;;;;;21.75;100.00;100770.19;3056493;19;818;-51
2022/07/08 04:32:03;;;;;;;;;;;;;;;21.92;100.00;100772.00;3055957;19;894;-50
2022/07/08 04:33:08;;;;;;;;;;;;;;;22.06;100.00;100788.75;3056230;19;985;-51
2022/07/08 04:34:11;;;;;;;;;;;;;;;22.22;100.00;100780.66;3057739;19;954;-50
2022/07/08 04:35:15;;;;;;;;;;;;;;;22.33;100.00;100777.69;3059255;19;901;-51
2022/07/08 04:36:17;;;;;;;;;;;;;;;22.40;100.00;100795.03;3059112;19;844;-50
2022/07/08 04:37:22;;;;;;;;;;;;;;;22.46;100.00;100791.66;3059416;19;1000;-51
2022/07/08 04:38:24;;;;;;;;;;;;;;;22.53;100.00;100800.88;3058961;19;1016;-51
2022/07/08 04:39:28;;;;;;;;;;;;;;;22.59;100.00;100794.78;3059406;19;1056;-50
2022/07/08 04:40:30;;;;;;;;;;;;;;;22.67;100.00;100795.84;3058122;19;1048;-52
2022/07/08 04:41:35;;;;;;;;;;;;;;;22.74;100.00;100799.59;3058517;19;899;-51
2022/07/08 04:42:37;;;;;;;;;;;;;;;22.82;100.00;100802.38;3058974;19;1040;-51
2022/07/08 04:43:41;;;;;;;;;;;;;;;22.88;100.00;100798.97;3059236;19;1226;-51
2022/07/08 04:44:43;;;;;;;;;;;;;;;22.94;100.00;100801.88;3058936;19;999;-51
2022/07/08 04:45:47;;;;;;;;;;;;;;;22.99;100.00;100804.97;3059284;19;940;-50
2022/07/08 04:46:49;;;;;;;;;;;;;;;23.05;100.00;100800.72;3056802;19;1838;-51
2022/07/08 04:47:54;;;;;;;;;;;;;;;23.13;100.00;100805.31;3058279;19;980;-50
2022/07/08 04:48:56;;;;;;;;;;;;;;;23.19;100.00;100805.50;3058830;19;952;-51
2022/07/08 04:50:00;;;;;;;;;;;;;;;23.25;100.00;100806.72;3058737;19;895;-51
2022/07/08 04:51:03;;;;;;;;;;;;;;;23.31;100.00;100808.75;3059310;19;971;-52
2022/07/08 04:52:08;;;;;;;;;;;;;;;23.39;100.00;100807.91;3058771;19;909;-51
2022/07/08 04:53:13;;;;;;;;;;;;;;;23.48;100.00;100809.59;3059398;19;952;-51
2022/07/08 04:54:14;;;;;;;;;;;;;;;23.59;100.00;100820.19;3059195;19;945;-52
2022/07/08 04:55:31;;;;;;;;;;;;;;;23.72;100.00;100817.81;3058579;19;1607;-52
2022/07/08 04:56:33;;;;;;;;;;;;;;;23.88;100.00;100815.09;3059985;19;1125;-52
2022/07/08 04:57:38;;;;;;;;;;;;;;;23.99;100.00;100814.72;3059215;19;870;-51
2022/07/08 04:58:40;;;;;;;;;;;;;;;24.13;100.00;100820.50;3059250;19;959;-52
2022/07/08 04:59:44;;;;;;;;;;;;;;;24.29;100.00;100820.47;3058744;19;1684;-51
2022/07/08 05:00:46;;;;;;;;;;;;;;;24.55;100.00;100823.78;3059392;19;1218;-54
2022/07/08 05:01:51;;;;;;;;;;;;;;;25.38;100.00;100828.63;3059033;19;832;-51
2022/07/08 05:02:53;;;;;;;;;;;;;;;26.49;99.47;100826.91;3058724;19;1274;-52
2022/07/08 05:03:57;;;;;;;;;;;;;;;26.93;96.72;100836.16;3058943;19;1087;-51
2022/07/08 05:05:02;;;;;;;;;;;;;;;27.25;93.24;100830.19;3058870;19;1024;-51
2022/07/08 05:06:04;;;;;;;;;;;;;;;27.52;87.72;100836.78;3058731;19;973;-51
2022/07/08 05:07:08;;;;;;;;;;;;;;;27.78;85.38;100839.78;3057683;19;1865;-50
2022/07/08 05:08:10;;;;;;;;;;;;;;;27.93;84.68;100839.69;3059145;19;979;-51
2022/07/08 05:09:15;;;;;;;;;;;;;;;27.96;84.32;100842.06;3058679;19;901;-52
2022/07/08 05:10:17;;;;;;;;;;;;;;;27.96;83.81;100844.78;3058968;19;961;-52
2022/07/08 05:11:21;;;;;;;;;;;;;;;27.94;82.53;100845.00;3058656;19;1775;-51
2022/07/08 05:12:23;;;;;;;;;;;;;;;27.90;82.17;100846.44;3059103;19;933;-52
2022/07/08 05:13:27;;;;;;;;;;;;;;;27.85;80.99;100840.72;3058318;19;1241;-52
2022/07/08 05:14:29;;;;;;;;;;;;;;;27.78;79.27;100844.41;3058915;19;953;-51
2022/07/08 05:15:36;;;;;;;;;;;;;;;27.61;78.64;100846.59;3058592;19;1142;-52
2022/07/08 05:16:37;;;;;;;;;;;;;;;27.44;80.30;100843.25;3058743;19;1468;-51
2022/07/08 05:17:42;;;;;;;;;;;;;;;27.30;79.88;100844.13;3059603;19;1269;-51
2022/07/08 05:18:47;;;;;;;;;;;;;;;27.17;80.34;100835.81;3058662;19;937;-50
2022/07/08 05:19:49;;;;;;;;;;;;;;;27.04;81.30;100838.38;3058736;19;907;-52
2022/07/08 05:20:53;;;;;;;;;;;;;;;26.93;81.99;100836.16;3059238;19;1444;-51
2022/07/08 05:21:55;;;;;;;;;;;;;;;26.80;82.71;100837.66;3058983;19;1473;-52
2022/07/08 05:22:59;;;;;;;;;;;;;;;26.71;83.78;100836.03;3059979;19;1452;-51
2022/07/08 05:24:01;;;;;;;;;;;;;;;26.60;84.69;100836.53;3059897;19;1831;-52
2022/07/08 05:25:09;;;;;;;;;;;;;;;26.46;84.26;100848.31;3059759;19;1373;-51
2022/07/08 05:26:11;;;;;;;;;;;;;;;26.33;85.31;100845.41;3060124;19;1330;-52
2022/07/08 05:27:15;;;;;;;;;;;;;;;26.24;86.61;100841.03;3057615;19;1853;-51
2022/07/08 05:28:17;;;;;;;;;;;;;;;26.12;86.49;100833.28;3058450;19;1039;-51
2022/07/08 05:29:21;;;;;;;;;;;;;;;26.00;86.41;100844.88;3058724;19;901;-51
2022/07/08 05:30:23;;;;;;;;;;;;;;;25.89;87.31;100848.03;3059290;19;1199;-52
2022/07/08 05:31:28;;;;;;;;;;;;;;;25.78;87.65;100846.63;3059312;19;1738;-51